Time;durP1;ratioP1;P1;durP2;ratioP2;P2;SDS_P1;SDS_P2;PMS_P1;PMS_P2;Temp;Humidity;BMP_temperature;BMP_pressure;BME280_temperature;BME280_humidity;BME280_pressure;Samples;Min_cycle;Max_cycle;Signal;HPM_P1;HPM_P2
2021/11/02 00:00:19;;;;;;;;;;;7.90;72.00;;;;;;5021922;28;83691;-59
2021/11/02 00:02:47;;;;;;;;;;;7.90;72.10;;;;;;5021792;28;82086;-59
2021/11/02 00:05:13;;;;;;;;;;;7.90;72.00;;;;;;5021194;28;83878;-59
2021/11/02 00:07:39;;;;;;;;;;;7.90;72.00;;;;;;5025777;28;83630;-59
2021/11/02 00:10:05;;;;;;;;;;;7.90;72.00;;;;;;5025241;28;82166;-59
2021/11/02 00:12:31;;;;;;;;;;;7.90;72.00;;;;;;5026243;28;82407;-59
2021/11/02 00:14:57;;;;;;;;;;;7.90;72.20;;;;;;5023205;28;83129;-59
2021/11/02 00:17:25;;;;;;;;;;;7.90;72.10;;;;;;5024764;28;84486;-59
2021/11/02 00:19:55;;;;;;;;;;;7.90;72.10;;;;;;5021228;28;84582;-59
2021/11/02 00:22:22;;;;;;;;;;;7.90;72.00;;;;;;5022472;28;82185;-61
2021/11/02 00:27:21;;;;;;;;;;;7.90;72.00;;;;;;5021563;28;83193;-59
2021/11/02 00:29:47;;;;;;;;;;;7.90;71.90;;;;;;5025128;28;83354;-60
2021/11/02 00:32:12;;;;;;;;;;;7.90;72.00;;;;;;5024249;28;83737;-60
2021/11/02 00:34:38;;;;;;;;;;;7.90;72.00;;;;;;5026539;28;83128;-59
2021/11/02 00:37:03;;;;;;;;;;;7.90;72.10;;;;;;5025506;28;83774;-59
2021/11/02 00:39:29;;;;;;;;;;;7.90;71.90;;;;;;5024100;28;83603;-59
2021/11/02 00:41:55;;;;;;;;;;;7.90;71.90;;;;;;5022388;28;82628;-59
2021/11/02 00:44:23;;;;;;;;;;;7.90;71.90;;;;;;5023185;28;82081;-59
2021/11/02 00:46:55;;;;;;;;;;;7.90;71.90;;;;;;5022240;28;83387;-60
2021/11/02 00:49:22;;;;;;;;;;;7.80;71.90;;;;;;5022109;28;82089;-60
2021/11/02 00:51:48;;;;;;;;;;;7.90;72.50;;;;;;5023616;28;83739;-59
2021/11/02 00:54:14;;;;;;;;;;;7.90;72.00;;;;;;5022032;28;83855;-59
2021/11/02 00:56:40;;;;;;;;;;;7.80;72.00;;;;;;5027928;28;81514;-59
2021/11/02 00:59:06;;;;;;;;;;;7.80;72.10;;;;;;5023061;28;83732;-59
2021/11/02 01:01:32;;;;;;;;;;;7.80;72.00;;;;;;5020885;28;83131;-59
2021/11/02 01:03:58;;;;;;;;;;;7.80;72.60;;;;;;5020488;28;83084;-59
2021/11/02 01:06:24;;;;;;;;;;;7.80;72.00;;;;;;5021087;28;83288;-59
2021/11/02 01:08:50;;;;;;;;;;;7.80;72.10;;;;;;5022322;28;82094;-59
2021/11/02 01:11:17;;;;;;;;;;;7.80;72.20;;;;;;5021312;28;82574;-59
2021/11/02 01:13:42;;;;;;;;;;;7.80;72.20;;;;;;5019832;28;84413;-58
2021/11/02 01:16:08;;;;;;;;;;;7.80;72.20;;;;;;5023931;28;82151;-59
2021/11/02 01:18:34;;;;;;;;;;;7.70;72.10;;;;;;5021955;28;84741;-59
2021/11/02 01:20:59;;;;;;;;;;;7.80;72.20;;;;;;5023186;28;81372;-59
2021/11/02 01:23:25;;;;;;;;;;;7.80;72.10;;;;;;5023328;28;82168;-59
2021/11/02 01:25:50;;;;;;;;;;;7.80;72.10;;;;;;5024243;28;82045;-59
2021/11/02 01:28:16;;;;;;;;;;;7.80;72.10;;;;;;5021476;28;84129;-59
2021/11/02 01:30:42;;;;;;;;;;;7.80;72.10;;;;;;5019852;28;82909;-59
2021/11/02 01:33:07;;;;;;;;;;;7.80;72.00;;;;;;5020761;28;82146;-59
2021/11/02 01:35:33;;;;;;;;;;;7.80;72.20;;;;;;5021331;28;82126;-59
2021/11/02 01:38:00;;;;;;;;;;;7.70;72.10;;;;;;5024632;28;83767;-59
2021/11/02 01:40:26;;;;;;;;;;;7.70;72.20;;;;;;5020992;28;82127;-59
2021/11/02 01:42:52;;;;;;;;;;;7.70;72.20;;;;;;5021161;28;82631;-59
2021/11/02 01:45:17;;;;;;;;;;;7.80;72.10;;;;;;5022626;28;81795;-60
2021/11/02 01:47:44;;;;;;;;;;;7.70;72.00;;;;;;5023153;28;82110;-59
2021/11/02 01:50:11;;;;;;;;;;;7.80;72.00;;;;;;5022233;28;82139;-59
2021/11/02 01:52:37;;;;;;;;;;;7.80;72.10;;;;;;5019883;28;85644;-59
2021/11/02 01:55:03;;;;;;;;;;;7.70;72.10;;;;;;5021592;28;82085;-59
2021/11/02 01:57:28;;;;;;;;;;;7.80;72.00;;;;;;5021991;28;83965;-59
2021/11/02 01:59:55;;;;;;;;;;;7.70;72.00;;;;;;5025619;28;82888;-59
2021/11/02 02:02:30;;;;;;;;;;;7.70;72.00;;;;;;4991149;27;83386;-60
2021/11/02 02:05:04;;;;;;;;;;;7.70;72.00;;;;;;4983146;28;84700;-59
2021/11/02 02:07:34;;;;;;;;;;;7.80;72.10;;;;;;4980101;28;82116;-59
2021/11/02 02:10:03;;;;;;;;;;;7.70;72.10;;;;;;4982520;28;81905;-59
2021/11/02 02:12:30;;;;;;;;;;;7.70;72.10;;;;;;4983176;28;82946;-59
2021/11/02 02:15:02;;;;;;;;;;;7.70;72.20;;;;;;4980032;28;82109;-59
2021/11/02 02:17:30;;;;;;;;;;;7.70;72.10;;;;;;4979180;28;83737;-59
2021/11/02 02:19:59;;;;;;;;;;;7.80;72.10;;;;;;4983196;28;83113;-59
2021/11/02 02:22:36;;;;;;;;;;;7.80;71.90;;;;;;4983474;28;82104;-59
2021/11/02 02:25:31;;;;;;;;;;;7.80;72.10;;;;;;4979019;28;83674;-59
2021/11/02 02:28:05;;;;;;;;;;;7.70;72.10;;;;;;4972552;28;82161;-59
2021/11/02 02:30:31;;;;;;;;;;;7.70;72.10;;;;;;4983443;28;82457;-59
2021/11/02 02:32:58;;;;;;;;;;;7.70;72.00;;;;;;4981880;28;84259;-59
2021/11/02 02:35:25;;;;;;;;;;;7.70;72.20;;;;;;4981075;28;81379;-59
2021/11/02 02:37:51;;;;;;;;;;;7.70;72.20;;;;;;4979509;28;82946;-59
2021/11/02 02:40:18;;;;;;;;;;;7.70;72.20;;;;;;4979501;28;82948;-59
2021/11/02 02:42:44;;;;;;;;;;;7.80;72.00;;;;;;4978517;28;83055;-59
2021/11/02 02:45:13;;;;;;;;;;;7.70;72.00;;;;;;4986039;28;85423;-60
2021/11/02 02:47:39;;;;;;;;;;;7.70;72.20;;;;;;4978998;28;82133;-59
2021/11/02 02:50:06;;;;;;;;;;;7.70;72.30;;;;;;4983040;28;82526;-59
2021/11/02 02:52:31;;;;;;;;;;;7.70;72.30;;;;;;4982452;28;82524;-59
2021/11/02 02:54:58;;;;;;;;;;;7.70;72.30;;;;;;4982772;28;82192;-59
2021/11/02 02:57:25;;;;;;;;;;;7.70;72.20;;;;;;4982340;28;84071;-59
2021/11/02 02:59:51;;;;;;;;;;;7.70;72.20;;;;;;4986227;28;82918;-59
2021/11/02 03:02:18;;;;;;;;;;;7.70;72.30;;;;;;4983197;28;82848;-58
2021/11/02 03:04:45;;;;;;;;;;;7.70;72.30;;;;;;4987242;28;82915;-59
2021/11/02 03:07:10;;;;;;;;;;;7.70;72.30;;;;;;4984533;28;84503;-59
2021/11/02 03:09:36;;;;;;;;;;;7.70;72.30;;;;;;4982914;28;83690;-59
2021/11/02 03:12:03;;;;;;;;;;;7.70;72.10;;;;;;4982558;28;84214;-59
2021/11/02 03:14:37;;;;;;;;;;;7.70;72.30;;;;;;4984895;28;83801;-59
2021/11/02 03:17:11;;;;;;;;;;;7.70;72.40;;;;;;4984337;28;84333;-59
2021/11/02 03:50:16;;;;;;;;;;;7.60;72.70;;;;;;4982486;28;82227;-59
2021/11/02 03:54:54;;;;;;;;;;;7.60;72.60;;;;;;4972813;28;82459;-59
2021/11/02 04:24:50;;;;;;;;;;;7.60;72.90;;;;;;4982652;28;83731;-59
2021/11/02 04:44:28;;;;;;;;;;;7.60;72.90;;;;;;4980849;28;82559;-59
2021/11/02 05:08:54;;;;;;;;;;;7.50;72.90;;;;;;4984204;28;82220;-59
2021/11/02 05:59:46;;;;;;;;;;;7.50;73.10;;;;;;4982111;28;82235;-59
2021/11/02 06:29:55;;;;;;;;;;;7.60;73.10;;;;;;4985731;28;82252;-60
2021/11/02 06:32:27;;;;;;;;;;;7.60;73.20;;;;;;4985530;28;82179;-59
2021/11/02 06:35:11;;;;;;;;;;;7.60;73.20;;;;;;4984353;28;82038;-59
2021/11/02 07:17:55;;;;;;;;;;;7.70;73.00;;;;;;4986120;28;82745;-59
2021/11/02 07:26:08;;;;;;;;;;;7.70;73.00;;;;;;4984288;28;83594;-59
2021/11/02 08:45:35;;;;;;;;;;;7.70;73.20;;;;;;4984461;28;82106;-59
2021/11/02 08:48:03;;;;;;;;;;;7.70;72.90;;;;;;4981242;28;89704;-59
2021/11/02 08:50:35;;;;;;;;;;;7.70;73.10;;;;;;4980367;28;86454;-59
2021/11/02 08:53:01;;;;;;;;;;;7.70;73.40;;;;;;4978490;28;87189;-58
2021/11/02 08:55:27;;;;;;;;;;;7.70;72.90;;;;;;4977245;28;89084;-58
2021/11/02 08:57:56;;;;;;;;;;;7.70;73.30;;;;;;4976940;28;89882;-58
2021/11/02 09:00:22;;;;;;;;;;;7.70;73.00;;;;;;4977724;28;90103;-59
2021/11/02 09:02:49;;;;;;;;;;;7.70;73.00;;;;;;4979286;28;89350;-58
2021/11/02 09:05:19;;;;;;;;;;;7.70;73.10;;;;;;4978899;28;87892;-58
2021/11/02 09:07:45;;;;;;;;;;;7.70;73.30;;;;;;4977908;28;87623;-58
2021/11/02 09:10:20;;;;;;;;;;;7.70;73.00;;;;;;4978161;28;87132;-58
2021/11/02 09:12:51;;;;;;;;;;;7.70;73.10;;;;;;4980256;28;87659;-58
2021/11/02 09:15:21;;;;;;;;;;;7.70;73.10;;;;;;4981262;28;89107;-59
2021/11/02 09:17:48;;;;;;;;;;;7.70;73.00;;;;;;4977138;28;88980;-58
2021/11/02 09:20:15;;;;;;;;;;;7.70;73.30;;;;;;4980621;28;89226;-58
2021/11/02 09:22:41;;;;;;;;;;;7.70;73.20;;;;;;4979564;28;89194;-58
2021/11/02 09:25:08;;;;;;;;;;;7.70;73.40;;;;;;4998223;28;87266;-59
2021/11/02 09:27:34;;;;;;;;;;;7.70;73.10;;;;;;4979672;28;89898;-58
2021/11/02 09:30:01;;;;;;;;;;;7.80;73.20;;;;;;4979998;28;87172;-58
2021/11/02 09:32:26;;;;;;;;;;;7.80;73.30;;;;;;4980033;28;89121;-59
2021/11/02 09:34:53;;;;;;;;;;;7.70;73.70;;;;;;4980682;28;87145;-58
2021/11/02 09:37:20;;;;;;;;;;;7.80;73.10;;;;;;4980749;28;87114;-58
2021/11/02 09:39:48;;;;;;;;;;;7.70;72.80;;;;;;4979356;28;86411;-59
2021/11/02 09:42:26;;;;;;;;;;;7.70;73.30;;;;;;4978757;28;88331;-59
2021/11/02 09:45:10;;;;;;;;;;;7.70;73.70;;;;;;4980472;28;87145;-58
2021/11/02 09:47:51;;;;;;;;;;;7.70;73.30;;;;;;4978636;28;88111;-58
2021/11/02 09:50:20;;;;;;;;;;;7.70;73.10;;;;;;4976882;28;87201;-59
2021/11/02 09:53:04;;;;;;;;;;;7.80;73.30;;;;;;4979758;28;87228;-58
2021/11/02 09:55:42;;;;;;;;;;;7.80;73.30;;;;;;4979859;28;88772;-59
2021/11/02 09:58:37;;;;;;;;;;;7.80;73.30;;;;;;4976872;28;87153;-58
2021/11/02 10:01:21;;;;;;;;;;;7.80;73.30;;;;;;4973217;28;87219;-58
2021/11/02 10:04:06;;;;;;;;;;;7.70;73.30;;;;;;4977701;28;88665;-58
2021/11/02 10:06:42;;;;;;;;;;;7.70;73.50;;;;;;4977266;28;86404;-58
2021/11/02 10:09:11;;;;;;;;;;;7.80;73.60;;;;;;4980666;28;87162;-58
2021/11/02 10:11:37;;;;;;;;;;;7.70;73.50;;;;;;4979070;28;87157;-58
2021/11/02 10:14:21;;;;;;;;;;;7.70;73.50;;;;;;4979751;28;89350;-58
2021/11/02 10:17:25;;;;;;;;;;;7.70;73.70;;;;;;4975551;28;87742;-58
2021/11/02 10:19:57;;;;;;;;;;;7.70;73.70;;;;;;4957827;28;87250;-58
2021/11/02 10:22:31;;;;;;;;;;;7.70;73.80;;;;;;4976976;28;87561;-59
2021/11/02 10:25:03;;;;;;;;;;;7.80;73.60;;;;;;4976193;28;87303;-58
2021/11/02 10:27:37;;;;;;;;;;;7.80;73.60;;;;;;4977155;28;88018;-58
2021/11/02 10:30:14;;;;;;;;;;;7.80;73.60;;;;;;4977620;28;87199;-58
2021/11/02 10:32:41;;;;;;;;;;;7.70;73.40;;;;;;4980066;28;86734;-58
2021/11/02 10:35:20;;;;;;;;;;;7.70;73.60;;;;;;4976912;28;87120;-58
2021/11/02 10:37:46;;;;;;;;;;;7.80;73.60;;;;;;4979803;28;88323;-58
2021/11/02 10:40:22;;;;;;;;;;;7.80;73.90;;;;;;4979719;28;88103;-58
2021/11/02 10:43:09;;;;;;;;;;;7.80;73.70;;;;;;4980227;28;88349;-59
2021/11/02 10:45:35;;;;;;;;;;;7.80;74.00;;;;;;4979254;28;87648;-58
2021/11/02 10:48:03;;;;;;;;;;;7.80;73.90;;;;;;4979491;28;87274;-58
2021/11/02 10:50:30;;;;;;;;;;;7.80;73.50;;;;;;4977275;28;89304;-58
2021/11/02 10:52:57;;;;;;;;;;;7.80;73.60;;;;;;4976574;28;88197;-58
2021/11/02 10:55:23;;;;;;;;;;;7.80;74.20;;;;;;4978955;28;87118;-58
2021/11/02 10:58:09;;;;;;;;;;;7.80;73.80;;;;;;4976649;28;88815;-58
2021/11/02 11:00:35;;;;;;;;;;;7.80;73.70;;;;;;4976066;28;87118;-58
2021/11/02 11:03:05;;;;;;;;;;;7.80;73.60;;;;;;4976736;28;87152;-58
2021/11/02 11:05:32;;;;;;;;;;;7.80;73.60;;;;;;4977631;28;89121;-59
2021/11/02 11:07:58;;;;;;;;;;;7.80;73.80;;;;;;4978824;28;87134;-58
2021/11/02 11:10:24;;;;;;;;;;;7.80;73.80;;;;;;4980770;28;89014;-58
2021/11/02 11:12:51;;;;;;;;;;;7.80;73.80;;;;;;4982490;28;89659;-59
2021/11/02 11:15:17;;;;;;;;;;;7.80;73.90;;;;;;4982119;28;87218;-58
2021/11/02 11:17:55;;;;;;;;;;;7.80;73.80;;;;;;4985328;28;87735;-58
2021/11/02 11:20:22;;;;;;;;;;;7.80;73.80;;;;;;4979021;28;87200;-58
2021/11/02 11:22:48;;;;;;;;;;;7.90;73.80;;;;;;4981191;28;88994;-58
2021/11/02 11:25:16;;;;;;;;;;;7.90;73.90;;;;;;4981193;28;89770;-58
2021/11/02 11:27:55;;;;;;;;;;;7.80;73.80;;;;;;4982675;28;87290;-58
2021/11/02 11:30:21;;;;;;;;;;;7.90;73.90;;;;;;4978781;28;88148;-58
2021/11/02 11:32:47;;;;;;;;;;;7.90;74.10;;;;;;4979362;28;87835;-58
2021/11/02 11:35:13;;;;;;;;;;;7.80;74.00;;;;;;4979921;28;87138;-58
2021/11/02 11:37:41;;;;;;;;;;;7.90;74.10;;;;;;4981020;28;88938;-58
2021/11/02 11:40:08;;;;;;;;;;;7.90;74.00;;;;;;4981020;28;89081;-58
2021/11/02 11:42:34;;;;;;;;;;;7.90;74.00;;;;;;4982177;28;89603;-59
2021/11/02 11:45:05;;;;;;;;;;;7.90;74.00;;;;;;4979740;28;88090;-58
2021/11/02 11:47:32;;;;;;;;;;;7.90;74.10;;;;;;4979837;28;86460;-58
2021/11/02 11:50:11;;;;;;;;;;;7.90;74.10;;;;;;4982503;28;88555;-59
2021/11/02 11:52:43;;;;;;;;;;;7.90;74.00;;;;;;4977549;28;87648;-58
2021/11/02 11:55:09;;;;;;;;;;;7.90;74.00;;;;;;4981897;28;89074;-58
2021/11/02 11:57:36;;;;;;;;;;;8.00;74.30;;;;;;4981665;28;88514;-58
2021/11/02 12:00:06;;;;;;;;;;;8.00;74.00;;;;;;4978563;28;89321;-59
2021/11/02 12:02:41;;;;;;;;;;;8.00;74.10;;;;;;4982615;28;87173;-58
2021/11/02 12:05:17;;;;;;;;;;;8.00;74.20;;;;;;4979385;28;87970;-58
2021/11/02 12:07:48;;;;;;;;;;;8.00;74.20;;;;;;4977989;28;88098;-58
2021/11/02 12:10:15;;;;;;;;;;;8.00;74.20;;;;;;4980313;28;89357;-58
2021/11/02 12:12:42;;;;;;;;;;;8.00;74.30;;;;;;4981773;28;87460;-58
2021/11/02 12:15:09;;;;;;;;;;;8.00;74.40;;;;;;4981123;28;87137;-58
2021/11/02 12:17:39;;;;;;;;;;;8.00;74.40;;;;;;4979082;28;88799;-58
2021/11/02 12:20:07;;;;;;;;;;;8.10;74.30;;;;;;4977700;28;88766;-63
2021/11/02 12:22:51;;;;;;;;;;;8.10;75.20;;;;;;4981678;28;88153;-50
2021/11/02 12:25:26;;;;;;;;;;;8.00;76.00;;;;;;4978280;28;88083;-50
2021/11/02 12:27:53;;;;;;;;;;;8.00;76.90;;;;;;4976512;28;87279;-69
2021/11/02 12:30:19;;;;;;;;;;;7.90;78.90;;;;;;4978693;28;87813;-59
2021/11/02 12:32:46;;;;;;;;;;;7.90;78.60;;;;;;4977637;28;88147;-55
2021/11/02 12:35:14;;;;;;;;;;;7.90;78.60;;;;;;4978949;28;88780;-64
2021/11/02 12:38:09;;;;;;;;;;;7.90;78.80;;;;;;4979970;28;86893;-66
2021/11/02 12:40:36;;;;;;;;;;;8.00;79.00;;;;;;4974527;28;88272;-71
2021/11/02 12:43:02;;;;;;;;;;;8.10;85.10;;;;;;4978446;28;87330;-62
2021/11/02 12:45:34;;;;;;;;;;;8.20;86.90;;;;;;4979478;28;88127;-62
2021/11/02 12:48:01;;;;;;;;;;;8.30;86.20;;;;;;4977490;28;87140;-66
2021/11/02 12:50:35;;;;;;;;;;;8.30;87.30;;;;;;4977854;28;88182;-63
2021/11/02 12:53:01;;;;;;;;;;;8.40;87.30;;;;;;4979425;28;87662;-63
2021/11/02 12:55:31;;;;;;;;;;;8.40;84.40;;;;;;4964557;28;87214;-63
2021/11/02 12:58:09;;;;;;;;;;;8.30;84.80;;;;;;4960029;28;87933;-65
2021/11/02 13:00:43;;;;;;;;;;;8.40;84.70;;;;;;4958671;28;88195;-58
2021/11/02 13:03:10;;;;;;;;;;;8.40;83.60;;;;;;4962323;28;86513;-59
2021/11/02 13:05:36;;;;;;;;;;;8.50;82.50;;;;;;4960801;28;87173;-58
2021/11/02 13:08:03;;;;;;;;;;;8.70;82.30;;;;;;4964593;28;87243;-50
2021/11/02 13:10:31;;;;;;;;;;;9.00;81.00;;;;;;4959978;28;88077;-59
2021/11/02 13:13:03;;;;;;;;;;;9.10;79.20;;;;;;4958229;28;89821;-60
2021/11/02 13:15:31;;;;;;;;;;;9.10;79.60;;;;;;4957371;28;87175;-59
2021/11/02 13:17:58;;;;;;;;;;;9.10;79.30;;;;;;4961629;28;87963;-59
2021/11/02 13:20:28;;;;;;;;;;;9.10;78.90;;;;;;4960486;28;87307;-59
2021/11/02 13:22:54;;;;;;;;;;;9.00;79.50;;;;;;4961159;28;87222;-58
2021/11/02 13:25:24;;;;;;;;;;;9.20;82.70;;;;;;4960852;28;87859;-72
2021/11/02 13:27:55;;;;;;;;;;;9.20;80.80;;;;;;4959471;28;90413;-58
2021/11/02 13:30:36;;;;;;;;;;;9.20;80.50;;;;;;4963010;28;87151;-59
2021/11/02 13:49:05;;;;;;;;;;;9.40;84.40;;;;;;4978166;28;80372;-57
2021/11/02 13:51:31;;;;;;;;;;;9.50;87.00;;;;;;4958571;28;80271;-64
2021/11/02 13:53:56;;;;;;;;;;;9.60;88.10;;;;;;4957756;28;80359;-60
2021/11/02 13:56:26;;;;;;;;;;;9.70;86.70;;;;;;4958304;28;82799;-49
2021/11/02 13:58:52;;;;;;;;;;;9.60;88.90;;;;;;4957723;28;80810;-48
2021/11/02 14:01:28;;;;;;;;;;;9.80;88.20;;;;;;4961977;28;80792;-61
2021/11/02 14:03:57;;;;;;;;;;;9.90;86.30;;;;;;4961984;28;82513;-60
2021/11/02 14:06:23;;;;;;;;;;;10.00;85.80;;;;;;4957548;28;80343;-61
2021/11/02 14:08:49;;;;;;;;;;;10.10;85.20;;;;;;4964484;28;80319;-54
2021/11/02 14:11:23;;;;;;;;;;;10.20;83.90;;;;;;4960371;28;81484;-60
2021/11/02 14:13:49;;;;;;;;;;;10.80;82.00;;;;;;4959894;28;81248;-57
2021/11/02 14:16:26;;;;;;;;;;;11.60;79.00;;;;;;4960330;28;80890;-63
2021/11/02 14:18:51;;;;;;;;;;;13.20;75.90;;;;;;4959868;28;80398;-54
2021/11/02 14:21:36;;;;;;;;;;;15.70;68.90;;;;;;4960381;28;80430;-63
2021/11/02 14:24:05;;;;;;;;;;;16.10;65.90;;;;;;4961032;28;81766;-59
2021/11/02 14:26:35;;;;;;;;;;;15.60;66.60;;;;;;4957580;28;80399;-60
2021/11/02 14:29:02;;;;;;;;;;;15.50;67.10;;;;;;4959744;28;82241;-61
2021/11/02 14:31:46;;;;;;;;;;;15.50;67.10;;;;;;4960595;28;81838;-56
2021/11/02 14:34:31;;;;;;;;;;;15.60;66.70;;;;;;4959193;28;80944;-60
2021/11/02 14:37:10;;;;;;;;;;;15.70;66.50;;;;;;4958200;28;81226;-61
2021/11/02 14:39:53;;;;;;;;;;;15.80;66.30;;;;;;4960673;28;80392;-56
2021/11/02 14:42:37;;;;;;;;;;;15.90;66.20;;;;;;4959488;28;81429;-60
2021/11/02 14:45:02;;;;;;;;;;;15.60;67.00;;;;;;4956766;28;81520;-55
2021/11/02 14:47:32;;;;;;;;;;;15.20;68.00;;;;;;4957154;28;80381;-60
2021/11/02 14:49:57;;;;;;;;;;;14.50;69.20;;;;;;4945441;28;81377;-60
2021/11/02 14:52:26;;;;;;;;;;;13.90;70.90;;;;;;4945780;28;80565;-61
2021/11/02 14:54:52;;;;;;;;;;;13.50;72.20;;;;;;4948412;28;80490;-67
2021/11/02 14:57:20;;;;;;;;;;;13.10;73.20;;;;;;4943830;28;80375;-62
2021/11/02 14:59:57;;;;;;;;;;;12.80;74.10;;;;;;4946827;28;80418;-70
2021/11/02 15:02:39;;;;;;;;;;;12.60;74.70;;;;;;4946005;28;82060;-59
2021/11/02 15:05:07;;;;;;;;;;;12.30;75.40;;;;;;4945370;28;82818;-60
2021/11/02 15:07:37;;;;;;;;;;;12.20;75.90;;;;;;4945733;28;80379;-61
2021/11/02 15:10:06;;;;;;;;;;;12.70;75.70;;;;;;4947571;28;81307;-64
2021/11/02 15:12:32;;;;;;;;;;;13.50;73.30;;;;;;4944315;28;80744;-56
2021/11/02 15:14:58;;;;;;;;;;;14.10;71.40;;;;;;4945400;28;80373;-62
2021/11/02 15:17:23;;;;;;;;;;;14.60;70.00;;;;;;4946664;28;81049;-59
2021/11/02 15:19:49;;;;;;;;;;;14.80;69.50;;;;;;4943746;28;80374;-47
2021/11/02 15:22:17;;;;;;;;;;;15.00;68.80;;;;;;4944439;28;80395;-51
2021/11/02 15:24:44;;;;;;;;;;;15.30;68.20;;;;;;4944662;28;81835;-60
2021/11/02 15:27:11;;;;;;;;;;;15.60;67.80;;;;;;4947503;28;81393;-60
2021/11/02 15:29:57;;;;;;;;;;;15.70;67.20;;;;;;4945553;28;81767;-58
2021/11/02 15:32:42;;;;;;;;;;;16.00;66.60;;;;;;4946050;28;81437;-60
2021/11/02 15:35:10;;;;;;;;;;;16.10;66.00;;;;;;4945063;28;81356;-57
2021/11/02 15:37:41;;;;;;;;;;;16.30;65.70;;;;;;4946809;28;82339;-57
2021/11/02 15:40:11;;;;;;;;;;;16.40;65.40;;;;;;4950201;28;82664;-46
2021/11/02 15:42:38;;;;;;;;;;;16.60;65.20;;;;;;4943680;28;82174;-45
2021/11/02 15:45:11;;;;;;;;;;;16.60;65.00;;;;;;4947321;28;82989;-53
2021/11/02 15:47:42;;;;;;;;;;;16.70;64.90;;;;;;4944009;28;80555;-60
2021/11/02 15:50:09;;;;;;;;;;;16.70;64.90;;;;;;4944725;28;80416;-49
2021/11/02 15:52:35;;;;;;;;;;;16.80;64.80;;;;;;4943804;28;80701;-48
2021/11/02 15:55:07;;;;;;;;;;;16.80;64.90;;;;;;4944220;28;80368;-57
2021/11/02 15:57:43;;;;;;;;;;;17.00;64.90;;;;;;4943827;28;80944;-48
2021/11/02 16:00:11;;;;;;;;;;;17.10;64.60;;;;;;4941698;28;81359;-49
2021/11/02 16:02:37;;;;;;;;;;;17.30;64.30;;;;;;4949710;28;81442;-49
2021/11/02 16:05:05;;;;;;;;;;;17.30;64.00;;;;;;4946569;28;82024;-60
2021/11/02 16:07:31;;;;;;;;;;;17.10;64.20;;;;;;4946624;28;80411;-61
2021/11/02 16:09:57;;;;;;;;;;;16.20;66.20;;;;;;4945523;28;82269;-57
2021/11/02 16:12:27;;;;;;;;;;;15.60;68.10;;;;;;4944960;28;81796;-54
2021/11/02 16:14:54;;;;;;;;;;;15.20;69.40;;;;;;4946795;28;80446;-54
2021/11/02 16:17:21;;;;;;;;;;;14.90;70.50;;;;;;4944260;28;82279;-49
2021/11/02 16:19:47;;;;;;;;;;;14.60;71.40;;;;;;4942193;28;82689;-55
2021/11/02 16:22:13;;;;;;;;;;;14.30;72.20;;;;;;4949319;28;80406;-55
2021/11/02 16:24:39;;;;;;;;;;;14.20;72.90;;;;;;4945931;28;80681;-58
2021/11/02 16:27:20;;;;;;;;;;;14.00;73.20;;;;;;4945073;28;80481;-55
2021/11/02 16:29:46;;;;;;;;;;;14.00;73.50;;;;;;4943953;28;81719;-51
2021/11/02 16:32:19;;;;;;;;;;;14.00;73.50;;;;;;4943550;28;82621;-54
2021/11/02 16:34:44;;;;;;;;;;;13.90;73.60;;;;;;4942132;28;80380;-55
2021/11/02 16:37:10;;;;;;;;;;;13.80;73.70;;;;;;4942534;28;82000;-53
2021/11/02 16:39:35;;;;;;;;;;;13.80;73.40;;;;;;4941969;28;81159;-55
2021/11/02 16:42:05;;;;;;;;;;;13.80;73.80;;;;;;4942922;28;81329;-50
2021/11/02 16:44:35;;;;;;;;;;;13.80;73.50;;;;;;4944717;28;80967;-48
2021/11/02 16:47:05;;;;;;;;;;;13.70;73.40;;;;;;4943188;28;80400;-48
2021/11/02 16:49:32;;;;;;;;;;;13.70;73.40;;;;;;4942357;28;81841;-56
2021/11/02 16:51:59;;;;;;;;;;;13.90;73.50;;;;;;4944614;28;81272;-52
2021/11/02 16:54:29;;;;;;;;;;;14.60;71.50;;;;;;4944314;28;80367;-59
2021/11/02 16:57:04;;;;;;;;;;;15.10;70.10;;;;;;4945278;28;81467;-60
2021/11/02 16:59:38;;;;;;;;;;;15.60;69.10;;;;;;4945774;28;81325;-55
2021/11/02 17:02:13;;;;;;;;;;;15.90;68.10;;;;;;4946490;28;80407;-60
2021/11/02 17:04:38;;;;;;;;;;;16.20;67.30;;;;;;4944675;28;82117;-57
2021/11/02 17:07:11;;;;;;;;;;;16.60;66.50;;;;;;4948684;28;80923;-63
2021/11/02 17:09:39;;;;;;;;;;;16.80;65.60;;;;;;4944263;28;80737;-55
2021/11/02 17:12:07;;;;;;;;;;;17.00;65.30;;;;;;4945432;28;81266;-59
2021/11/02 17:14:38;;;;;;;;;;;17.20;65.00;;;;;;4941964;28;80376;-58
2021/11/02 17:17:05;;;;;;;;;;;17.50;64.40;;;;;;4941858;28;81978;-58
2021/11/02 17:19:41;;;;;;;;;;;17.60;64.10;;;;;;4943301;28;81822;-58
2021/11/02 17:22:06;;;;;;;;;;;17.80;63.50;;;;;;4944054;28;80498;-52
2021/11/02 17:24:32;;;;;;;;;;;18.00;63.10;;;;;;4943233;28;80391;-57
2021/11/02 17:26:58;;;;;;;;;;;18.20;62.80;;;;;;4942433;28;81293;-58
2021/11/02 17:29:25;;;;;;;;;;;18.30;62.60;;;;;;4945030;28;80343;-48
2021/11/02 17:31:51;;;;;;;;;;;18.30;62.20;;;;;;4944492;28;82788;-58
2021/11/02 17:34:22;;;;;;;;;;;18.40;62.60;;;;;;4943889;28;80647;-48
2021/11/02 17:37:07;;;;;;;;;;;18.60;62.10;;;;;;4943649;28;81457;-52
2021/11/02 17:39:34;;;;;;;;;;;18.80;61.90;;;;;;4943360;28;82724;-55
2021/11/02 17:42:00;;;;;;;;;;;18.90;61.70;;;;;;4941096;28;82082;-54
2021/11/02 17:44:25;;;;;;;;;;;19.10;61.30;;;;;;4945506;28;81698;-52
2021/11/02 17:46:51;;;;;;;;;;;19.20;61.10;;;;;;4945328;28;81048;-56
2021/11/02 17:49:17;;;;;;;;;;;19.30;60.80;;;;;;4944532;28;80448;-49
2021/11/02 17:51:44;;;;;;;;;;;19.30;60.80;;;;;;4945999;28;81249;-53
2021/11/02 17:54:10;;;;;;;;;;;19.40;60.60;;;;;;4941456;28;81376;-55
2021/11/02 17:56:37;;;;;;;;;;;19.50;60.50;;;;;;4945590;28;80998;-52
2021/11/02 17:59:04;;;;;;;;;;;19.50;60.70;;;;;;4943051;28;83470;-49
2021/11/02 18:01:30;;;;;;;;;;;19.60;60.30;;;;;;4942706;28;81364;-48
2021/11/02 18:03:58;;;;;;;;;;;19.70;60.20;;;;;;4940877;28;82157;-47
2021/11/02 18:06:24;;;;;;;;;;;19.70;60.10;;;;;;4943079;28;84664;-51
2021/11/02 18:08:50;;;;;;;;;;;19.80;60.00;;;;;;4941244;28;83038;-48
2021/11/02 18:11:16;;;;;;;;;;;19.90;60.00;;;;;;4943584;28;83329;-55
2021/11/02 18:13:43;;;;;;;;;;;19.90;59.90;;;;;;4940336;28;82118;-55
2021/11/02 18:16:09;;;;;;;;;;;19.30;60.90;;;;;;4943778;28;82824;-55
2021/11/02 18:18:38;;;;;;;;;;;18.40;63.20;;;;;;4943573;28;83043;-60
2021/11/02 18:21:14;;;;;;;;;;;17.80;65.00;;;;;;4944431;28;82207;-54
2021/11/02 18:23:40;;;;;;;;;;;17.30;66.40;;;;;;4943975;28;83934;-55
2021/11/02 18:26:06;;;;;;;;;;;17.00;67.50;;;;;;4945135;28;81339;-51
2021/11/02 18:28:32;;;;;;;;;;;17.30;67.20;;;;;;4943605;28;82481;-58
2021/11/02 18:30:58;;;;;;;;;;;17.90;65.40;;;;;;4943192;28;82150;-48
2021/11/02 18:33:23;;;;;;;;;;;18.30;64.40;;;;;;4944862;28;84688;-53
2021/11/02 18:35:50;;;;;;;;;;;17.90;64.90;;;;;;4944203;28;85112;-70
2021/11/02 18:38:15;;;;;;;;;;;17.30;66.50;;;;;;4946415;28;83679;-60
2021/11/02 18:40:41;;;;;;;;;;;16.80;67.70;;;;;;4945845;28;82073;-57
2021/11/02 18:43:07;;;;;;;;;;;16.50;68.70;;;;;;4945439;28;82957;-50
2021/11/02 18:45:32;;;;;;;;;;;16.20;69.40;;;;;;4946225;28;82455;-50
2021/11/02 18:47:58;;;;;;;;;;;16.00;70.00;;;;;;4946157;28;82097;-53
2021/11/02 18:50:25;;;;;;;;;;;15.90;70.20;;;;;;4947361;28;84328;-62
2021/11/02 18:52:51;;;;;;;;;;;15.90;70.20;;;;;;4945638;28;84660;-55
2021/11/02 18:55:17;;;;;;;;;;;16.00;70.70;;;;;;4947180;28;82133;-57
2021/11/02 18:57:42;;;;;;;;;;;16.80;68.70;;;;;;4942734;28;86004;-54
2021/11/02 19:00:10;;;;;;;;;;;17.40;66.80;;;;;;4942804;28;82197;-57
2021/11/02 19:02:36;;;;;;;;;;;17.90;65.40;;;;;;4946292;28;83050;-58
2021/11/02 19:05:02;;;;;;;;;;;18.30;64.60;;;;;;4945748;28;85076;-57
2021/11/02 19:07:27;;;;;;;;;;;18.50;63.80;;;;;;4945119;28;82166;-64
2021/11/02 19:09:53;;;;;;;;;;;18.60;63.50;;;;;;4944121;28;83566;-71
2021/11/02 19:12:18;;;;;;;;;;;17.80;65.50;;;;;;4943535;28;82810;-65
2021/11/02 19:14:44;;;;;;;;;;;17.20;66.90;;;;;;4943250;28;81352;-61
2021/11/02 19:27:18;;;;;;;;;;;15.60;71.20;;;;;;5060772;27;80373;-61
2021/11/02 19:29:44;;;;;;;;;;;15.40;71.90;;;;;;5060430;27;80320;-64
2021/11/02 19:32:10;;;;;;;;;;;15.30;71.60;;;;;;5060621;27;80310;-64
2021/11/02 19:34:35;;;;;;;;;;;15.20;71.70;;;;;;5061117;27;81244;-64
2021/11/02 19:37:01;;;;;;;;;;;15.10;72.40;;;;;;5061712;27;80401;-64
2021/11/02 19:39:27;;;;;;;;;;;14.90;72.60;;;;;;5060004;27;80352;-64
2021/11/02 19:41:53;;;;;;;;;;;14.80;72.60;;;;;;5058956;27;83032;-64
2021/11/02 19:44:19;;;;;;;;;;;14.70;73.00;;;;;;5059819;27;80405;-64
2021/11/02 19:46:45;;;;;;;;;;;14.70;73.30;;;;;;5063307;27;80817;-63
2021/11/02 19:49:11;;;;;;;;;;;14.60;73.10;;;;;;5061223;27;80326;-64
2021/11/02 19:51:37;;;;;;;;;;;14.60;73.10;;;;;;5062204;27;81376;-64
2021/11/02 19:54:02;;;;;;;;;;;14.60;73.20;;;;;;5060798;27;81941;-63
2021/11/02 19:56:28;;;;;;;;;;;14.50;73.20;;;;;;5057886;27;82033;-64
2021/11/02 19:58:54;;;;;;;;;;;14.40;73.30;;;;;;5058104;27;80343;-63
2021/11/02 20:01:19;;;;;;;;;;;14.40;73.20;;;;;;5058075;27;81350;-63